createdAt,value
2022-10-29T00:01:25.285Z,17.82
2022-10-29T00:03:52.182Z,17.80
2022-10-29T00:06:19.069Z,17.82
2022-10-29T00:08:46.040Z,17.81
2022-10-29T00:11:16.721Z,17.81
2022-10-29T00:13:43.703Z,17.81
2022-10-29T00:16:13.676Z,17.82
2022-10-29T00:18:40.611Z,17.81
2022-10-29T00:21:11.134Z,17.82
2022-10-29T00:23:38.132Z,17.82
2022-10-29T00:26:05.516Z,17.82
2022-10-29T00:28:32.593Z,17.83
2022-10-29T00:31:08.212Z,17.80
2022-10-29T00:33:35.139Z,17.80
2022-10-29T00:36:05.513Z,17.81
2022-10-29T00:38:34.186Z,17.80
2022-10-29T00:41:01.415Z,17.80
2022-10-29T00:43:29.140Z,17.80
2022-10-29T00:45:56.067Z,17.78
2022-10-29T00:48:25.244Z,17.77
2022-10-29T00:50:53.727Z,17.79
2022-10-29T00:53:27.269Z,17.79
2022-10-29T00:55:54.169Z,17.79
2022-10-29T00:58:23.348Z,17.80
2022-10-29T01:00:51.799Z,17.80
2022-10-29T01:03:20.208Z,17.79
2022-10-29T01:05:52.706Z,17.79
2022-10-29T01:08:51.309Z,17.78
2022-10-29T01:12:23.728Z,17.78
2022-10-29T01:15:34.504Z,17.78
2022-10-29T01:18:32.780Z,17.78
2022-10-29T01:21:50.388Z,17.76
2022-10-29T01:24:37.948Z,17.75
2022-10-29T01:27:30.759Z,17.75
2022-10-29T01:30:11.891Z,17.75
2022-10-29T01:32:54.760Z,17.75
2022-10-29T01:35:41.118Z,17.75
2022-10-29T01:38:31.913Z,17.75
2022-10-29T01:41:18.108Z,17.76
2022-10-29T01:44:03.440Z,17.74
2022-10-29T01:47:02.206Z,17.73
2022-10-29T01:49:39.118Z,17.73
2022-10-29T01:52:14.188Z,17.73
2022-10-29T01:54:46.971Z,17.73
2022-10-29T01:57:37.774Z,17.72
2022-10-29T02:00:17.366Z,17.73
2022-10-29T02:03:13.555Z,17.74
2022-10-29T02:05:58.889Z,17.72
2022-10-29T02:09:08.136Z,17.72
2022-10-29T02:11:49.636Z,17.72
2022-10-29T02:14:30.786Z,17.72
2022-10-29T02:17:00.330Z,17.72
2022-10-29T02:19:34.235Z,17.72
2022-10-29T02:22:01.988Z,17.73
2022-10-29T02:24:31.182Z,17.73
2022-10-29T02:26:59.064Z,17.71
2022-10-29T02:29:26.961Z,17.73
2022-10-29T02:31:59.028Z,17.71
2022-10-29T02:34:26.788Z,17.71
2022-10-29T02:36:54.196Z,17.71
2022-10-29T02:39:21.739Z,17.72
2022-10-29T02:41:50.568Z,17.69
2022-10-29T02:44:23.888Z,17.69
2022-10-29T02:46:51.347Z,17.70
2022-10-29T02:49:19.484Z,17.70
2022-10-29T02:51:47.242Z,17.68
2022-10-29T02:54:15.505Z,17.70
2022-10-29T02:56:43.259Z,17.71
2022-10-29T02:59:12.690Z,17.70
2022-10-29T03:01:41.186Z,17.70
2022-10-29T03:04:09.278Z,17.69
2022-10-29T03:06:38.613Z,17.70
2022-10-29T03:09:07.022Z,17.69
2022-10-29T03:11:35.410Z,17.70
2022-10-29T03:14:05.947Z,17.69
2022-10-29T03:16:35.410Z,17.70
2022-10-29T03:19:02.889Z,17.69
2022-10-29T03:21:32.161Z,17.69
2022-10-29T03:24:02.436Z,17.68
2022-10-29T03:26:31.542Z,17.68
2022-10-29T03:29:00.422Z,17.65
2022-10-29T03:31:28.232Z,17.67
2022-10-29T03:33:57.429Z,17.67
2022-10-29T03:36:25.818Z,17.68
2022-10-29T03:38:53.777Z,17.67
2022-10-29T03:41:21.515Z,17.67
2022-10-29T03:43:49.444Z,17.66
2022-10-29T03:46:17.339Z,17.67
2022-10-29T03:48:45.526Z,17.66
2022-10-29T03:51:13.604Z,17.67
2022-10-29T03:53:41.346Z,17.67
2022-10-29T03:56:10.547Z,17.66
2022-10-29T03:58:38.478Z,17.66
2022-10-29T04:01:09.049Z,17.65
2022-10-29T04:03:38.854Z,17.66
2022-10-29T04:06:11.773Z,17.65
2022-10-29T04:08:40.355Z,17.66
2022-10-29T04:11:13.428Z,17.65
2022-10-29T04:13:41.596Z,17.64
2022-10-29T04:16:10.238Z,17.64
2022-10-29T04:18:38.204Z,17.63
2022-10-29T04:27:24.787Z,17.65
2022-10-29T04:29:34.722Z,17.64
2022-10-29T04:32:02.418Z,17.63
2022-10-29T04:34:41.113Z,17.64
2022-10-29T04:37:09.103Z,17.64
2022-10-29T04:39:36.716Z,17.63
2022-10-29T04:42:04.640Z,17.62
2022-10-29T04:44:33.433Z,17.63
2022-10-29T04:47:06.859Z,17.63
2022-10-29T04:49:34.589Z,17.63
2022-10-29T04:52:01.941Z,17.61
2022-10-29T04:54:35.139Z,17.61
2022-10-29T04:57:03.234Z,17.60
2022-10-29T04:59:34.793Z,17.61
2022-10-29T05:02:02.456Z,17.62
2022-10-29T05:04:30.628Z,17.61
2022-10-29T05:07:05.167Z,17.61
2022-10-29T05:09:45.475Z,17.61
2022-10-29T05:12:13.001Z,17.60
2022-10-29T05:14:40.487Z,17.61
2022-10-29T05:19:35.469Z,17.58
2022-10-29T05:22:08.458Z,17.61
2022-10-29T05:24:41.235Z,17.60
2022-10-29T05:27:13.725Z,17.60
2022-10-29T05:29:41.372Z,17.56
2022-10-29T05:32:12.488Z,17.60
2022-10-29T05:34:44.346Z,17.56
2022-10-29T05:37:13.344Z,17.57
2022-10-29T05:39:41.450Z,17.58
2022-10-29T05:42:09.391Z,17.59
2022-10-29T05:44:36.833Z,17.59
2022-10-29T05:47:06.845Z,17.57
2022-10-29T05:49:35.538Z,17.58
2022-10-29T05:52:03.385Z,17.59
2022-10-29T05:54:33.008Z,17.58
2022-10-29T05:57:00.704Z,17.58
2022-10-29T05:59:32.655Z,17.59
2022-10-29T06:02:02.430Z,17.58
2022-10-29T06:04:35.939Z,17.57
2022-10-29T06:07:03.706Z,17.58
2022-10-29T06:09:31.741Z,17.56
2022-10-29T06:12:00.188Z,17.58
2022-10-29T06:14:28.084Z,17.57
2022-10-29T06:16:56.035Z,17.56
2022-10-29T06:19:23.998Z,17.56
2022-10-29T06:21:55.174Z,17.56
2022-10-29T06:24:26.009Z,17.55
2022-10-29T06:26:56.467Z,17.56
2022-10-29T06:29:24.236Z,17.57
2022-10-29T06:31:51.687Z,17.57
2022-10-29T06:34:19.679Z,17.57
2022-10-29T06:36:47.350Z,17.57
2022-10-29T06:39:15.258Z,17.57
2022-10-29T06:41:43.083Z,17.57
2022-10-29T06:44:11.002Z,17.56
2022-10-29T06:46:39.672Z,17.57
2022-10-29T06:49:07.707Z,17.57
2022-10-29T06:51:36.796Z,17.57
2022-10-29T06:54:04.826Z,17.57
2022-10-29T06:56:34.409Z,17.56
2022-10-29T06:59:02.823Z,17.56
2022-10-29T07:01:33.862Z,17.55
2022-10-29T07:04:03.196Z,17.57
2022-10-29T07:06:34.718Z,17.57
2022-10-29T07:09:02.618Z,17.57
2022-10-29T07:11:30.589Z,17.57
2022-10-29T07:13:59.201Z,17.57
2022-10-29T07:16:27.751Z,17.58
2022-10-29T07:18:56.607Z,17.58
2022-10-29T07:21:25.089Z,17.57
2022-10-29T07:23:53.129Z,17.59
2022-10-29T07:26:20.717Z,17.60
2022-10-29T07:28:48.620Z,17.59
2022-10-29T07:31:16.862Z,17.59
2022-10-29T07:33:44.626Z,17.59
2022-10-29T07:36:14.609Z,17.59
2022-10-29T07:38:42.610Z,17.58
2022-10-29T07:41:10.478Z,17.60
2022-10-29T07:43:38.608Z,17.60
2022-10-29T07:46:06.995Z,17.61
2022-10-29T07:48:37.354Z,17.60
2022-10-29T07:51:04.979Z,17.60
2022-10-29T07:53:39.437Z,17.60
2022-10-29T07:56:07.849Z,17.60
2022-10-29T07:58:37.281Z,17.61
2022-10-29T08:01:16.567Z,17.62
2022-10-29T08:03:45.338Z,17.60
2022-10-29T08:06:12.827Z,17.62
2022-10-29T08:08:40.833Z,17.63
2022-10-29T08:11:09.144Z,17.60
2022-10-29T08:13:37.416Z,17.62
2022-10-29T08:16:06.693Z,17.62
2022-10-29T08:18:33.958Z,17.64
2022-10-29T08:21:05.554Z,17.64
2022-10-29T08:23:33.596Z,17.64
2022-10-29T08:26:02.415Z,17.66
2022-10-29T08:28:40.116Z,17.66
2022-10-29T08:31:10.640Z,17.67
2022-10-29T08:33:39.018Z,17.67
2022-10-29T08:36:07.262Z,17.68
2022-10-29T08:38:35.637Z,17.70
2022-10-29T08:41:11.492Z,17.70
2022-10-29T08:47:08.660Z,17.72
2022-10-29T08:49:41.831Z,17.73
2022-10-29T08:52:24.468Z,17.75
2022-10-29T08:55:16.337Z,17.76
2022-10-29T08:57:48.083Z,17.77
2022-10-29T09:00:19.292Z,17.78
2022-10-29T09:02:46.419Z,17.80
2022-10-29T09:05:19.660Z,17.79
2022-10-29T09:08:02.357Z,17.82
2022-10-29T09:10:41.780Z,17.83
2022-10-29T09:13:33.303Z,17.85
2022-10-29T09:16:18.905Z,17.86
2022-10-29T09:18:54.589Z,17.87
2022-10-29T09:21:41.661Z,17.89
2022-10-29T09:24:17.676Z,17.89
2022-10-29T09:26:52.640Z,17.91
2022-10-29T09:29:30.133Z,17.91
2022-10-29T09:32:03.418Z,17.93
2022-10-29T09:34:50.011Z,17.94
2022-10-29T09:37:22.033Z,17.95
2022-10-29T09:39:49.050Z,17.96
2022-10-29T09:42:23.382Z,17.98
2022-10-29T09:44:59.045Z,17.99
2022-10-29T09:47:39.194Z,17.99
2022-10-29T09:50:36.375Z,18.01
2022-10-29T09:53:03.393Z,18.02
2022-10-29T09:55:40.059Z,18.03
2022-10-29T09:58:08.095Z,18.04
2022-10-29T10:00:35.498Z,18.06
2022-10-29T10:03:15.461Z,18.06
2022-10-29T10:06:09.195Z,18.07
2022-10-29T10:09:01.995Z,18.10
2022-10-29T10:11:44.332Z,18.11
2022-10-29T10:14:19.337Z,18.12
2022-10-29T10:16:46.400Z,18.14
2022-10-29T10:19:31.240Z,18.15
2022-10-29T10:22:06.053Z,18.16
2022-10-29T10:24:35.678Z,18.17
2022-10-29T10:27:31.759Z,18.18
2022-10-29T10:30:04.557Z,18.18
2022-10-29T10:32:32.375Z,18.19
2022-10-29T10:34:59.207Z,18.19
2022-10-29T10:37:26.073Z,18.19
2022-10-29T10:39:57.057Z,18.21
2022-10-29T10:42:28.488Z,18.21
2022-10-29T10:45:02.602Z,18.21
2022-10-29T10:47:36.739Z,18.23
2022-10-29T10:50:20.478Z,18.23
2022-10-29T10:52:47.934Z,18.24
2022-10-29T10:55:46.976Z,18.25
2022-10-29T10:58:19.981Z,18.25
2022-10-29T11:01:07.327Z,18.27
2022-10-29T11:03:49.210Z,18.28
2022-10-29T11:06:23.272Z,18.29
2022-10-29T11:08:57.006Z,18.29
2022-10-29T11:11:28.074Z,18.31
2022-10-29T11:14:03.439Z,18.33
2022-10-29T11:16:43.651Z,18.34
2022-10-29T11:19:31.291Z,18.35
2022-10-29T11:22:22.672Z,18.35
2022-10-29T11:25:12.879Z,18.37
2022-10-29T11:27:59.187Z,18.38
2022-10-29T11:30:29.442Z,18.39
2022-10-29T11:33:21.040Z,18.40
2022-10-29T11:36:01.417Z,18.41
2022-10-29T11:38:43.101Z,18.43
2022-10-29T11:41:39.091Z,18.45
2022-10-29T11:44:12.438Z,18.48
2022-10-29T11:46:48.148Z,18.49
2022-10-29T11:49:33.300Z,18.52
2022-10-29T11:52:05.339Z,18.52
2022-10-29T11:54:44.765Z,18.54
2022-10-29T11:57:27.671Z,18.55
2022-10-29T12:00:27.725Z,18.57
2022-10-29T12:03:00.510Z,18.58
2022-10-29T12:05:46.269Z,18.60
2022-10-29T12:08:13.087Z,18.61
2022-10-29T12:11:09.110Z,18.63
2022-10-29T12:14:00.628Z,18.64
2022-10-29T12:16:48.440Z,18.65
2022-10-29T12:19:31.472Z,18.64
2022-10-29T12:22:19.420Z,18.66
2022-10-29T12:25:07.945Z,18.66
2022-10-29T12:28:04.073Z,18.65
2022-10-29T12:30:39.570Z,18.66
2022-10-29T12:33:27.803Z,18.67
2022-10-29T12:36:20.139Z,18.68
2022-10-29T12:38:55.829Z,18.69
2022-10-29T12:41:27.555Z,18.69
2022-10-29T12:44:10.263Z,18.68
2022-10-29T12:47:14.252Z,18.71
2022-10-29T12:49:49.908Z,18.73
2022-10-29T12:52:22.505Z,18.76
2022-10-29T12:54:52.951Z,18.77
2022-10-29T12:57:34.980Z,18.81
2022-10-29T13:00:23.645Z,18.84
2022-10-29T13:02:55.121Z,18.86
2022-10-29T13:05:34.626Z,18.88
2022-10-29T13:08:04.617Z,18.91
2022-10-29T13:10:31.479Z,18.92
2022-10-29T13:13:16.814Z,18.93
2022-10-29T13:15:50.294Z,18.94
2022-10-29T13:18:26.841Z,18.97
2022-10-29T13:20:55.116Z,18.98
2022-10-29T13:23:25.083Z,18.99
2022-10-29T13:25:56.652Z,19.01
2022-10-29T13:28:23.509Z,19.02
2022-10-29T13:30:53.110Z,19.02
2022-10-29T13:33:28.819Z,19.03
2022-10-29T13:35:59.330Z,19.04
2022-10-29T13:39:04.398Z,19.05
2022-10-29T13:41:43.418Z,19.05
2022-10-29T13:44:13.384Z,19.07
2022-10-29T13:47:03.340Z,19.07
2022-10-29T13:49:47.560Z,19.05
2022-10-29T13:52:21.789Z,19.07
2022-10-29T13:54:51.699Z,19.06
2022-10-29T13:57:55.464Z,19.05
2022-10-29T14:00:23.340Z,19.06
2022-10-29T14:03:33.409Z,19.06
2022-10-29T14:06:09.018Z,19.04
2022-10-29T14:08:49.472Z,19.04
2022-10-29T14:11:35.564Z,19.04
2022-10-29T14:14:05.571Z,19.04
2022-10-29T14:16:33.733Z,19.03
2022-10-29T14:19:21.896Z,19.03
2022-10-29T14:21:48.775Z,19.02
2022-10-29T14:24:17.089Z,19.02
2022-10-29T14:26:45.621Z,19.01
2022-10-29T14:29:22.600Z,19.00
2022-10-29T14:32:11.738Z,18.99
2022-10-29T14:34:38.738Z,18.98
2022-10-29T14:37:14.139Z,18.97
2022-10-29T14:39:57.841Z,18.96
2022-10-29T14:42:45.325Z,18.96
2022-10-29T14:45:38.531Z,18.94
2022-10-29T14:48:15.658Z,18.94
2022-10-29T14:50:50.195Z,18.93
2022-10-29T14:53:30.423Z,18.93
2022-10-29T14:56:00.050Z,18.92
2022-10-29T14:58:34.406Z,18.91
2022-10-29T15:01:14.623Z,18.91
2022-10-29T15:03:42.203Z,18.90
2022-10-29T15:06:27.356Z,18.88
2022-10-29T15:09:07.732Z,18.87
2022-10-29T15:11:47.713Z,18.86
2022-10-29T15:14:53.423Z,18.85
2022-10-29T15:17:25.199Z,18.84
2022-10-29T15:20:05.016Z,18.83
2022-10-29T15:22:38.313Z,18.82
2022-10-29T15:25:21.861Z,18.81
2022-10-29T15:27:49.288Z,18.80
2022-10-29T15:30:20.973Z,18.79
2022-10-29T15:32:49.066Z,18.79
2022-10-29T15:35:21.327Z,18.79
2022-10-29T15:37:48.204Z,18.78
2022-10-29T15:40:19.389Z,18.77
2022-10-29T15:42:46.863Z,18.76
2022-10-29T15:45:15.612Z,18.75
2022-10-29T15:47:50.981Z,18.73
2022-10-29T15:50:19.468Z,18.73
2022-10-29T15:52:54.043Z,18.71
2022-10-29T15:55:26.873Z,18.70
2022-10-29T15:57:59.548Z,18.70
2022-10-29T16:00:26.741Z,18.69
2022-10-29T16:02:55.719Z,18.68
2022-10-29T16:05:22.900Z,18.67
2022-10-29T16:07:49.895Z,18.66
2022-10-29T16:10:19.743Z,18.67
2022-10-29T16:12:48.687Z,18.66
2022-10-29T16:15:18.584Z,18.65
2022-10-29T16:17:46.495Z,18.64
2022-10-29T16:20:16.384Z,18.63
2022-10-29T16:22:43.739Z,18.63
2022-10-29T16:25:22.000Z,18.61
2022-10-29T16:27:49.375Z,18.61
2022-10-29T16:30:16.680Z,18.60
2022-10-29T16:32:44.971Z,18.60
2022-10-29T16:35:18.128Z,18.58
2022-10-29T16:37:45.128Z,18.58
2022-10-29T16:40:12.362Z,18.57
2022-10-29T16:42:39.327Z,18.56
2022-10-29T16:45:10.299Z,18.56
2022-10-29T16:47:37.434Z,18.56
2022-10-29T16:50:04.593Z,18.55
2022-10-29T16:52:32.840Z,18.55
2022-10-29T16:54:59.839Z,18.55
2022-10-29T16:57:26.763Z,18.54
2022-10-29T16:59:53.643Z,18.53
2022-10-29T17:02:20.580Z,18.52
2022-10-29T17:04:47.489Z,18.52
2022-10-29T17:07:14.388Z,18.51
2022-10-29T17:09:41.339Z,18.50
2022-10-29T17:12:08.241Z,18.50
2022-10-29T17:14:35.162Z,18.49
2022-10-29T17:17:02.179Z,18.49
2022-10-29T17:19:29.827Z,18.48
2022-10-29T17:21:58.986Z,18.46
2022-10-29T17:24:26.735Z,18.46
2022-10-29T17:26:54.243Z,18.46
2022-10-29T17:29:22.182Z,18.46
2022-10-29T17:31:49.258Z,18.45
2022-10-29T17:34:16.159Z,18.45
2022-10-29T17:36:44.681Z,18.44
2022-10-29T17:39:11.580Z,18.44
2022-10-29T17:41:38.510Z,18.43
2022-10-29T17:44:05.425Z,18.44
2022-10-29T17:46:32.437Z,18.41
2022-10-29T17:48:59.516Z,18.40
2022-10-29T17:51:26.513Z,18.40
2022-10-29T17:53:53.396Z,18.40
2022-10-29T17:56:20.288Z,18.39
2022-10-29T17:58:47.238Z,18.39
2022-10-29T18:01:15.241Z,18.39
2022-10-29T18:03:42.414Z,18.38
2022-10-29T18:06:11.836Z,18.38
2022-10-29T18:08:40.938Z,18.38
2022-10-29T18:11:19.000Z,18.37
2022-10-29T18:13:47.417Z,18.37
2022-10-29T18:16:18.592Z,18.36
2022-10-29T18:19:00.809Z,18.36
2022-10-29T18:21:28.864Z,18.36
2022-10-29T18:23:55.736Z,18.36
2022-10-29T18:26:34.695Z,18.35
2022-10-29T18:29:10.918Z,18.33
2022-10-29T18:31:40.311Z,18.33
2022-10-29T18:34:07.912Z,18.33
2022-10-29T18:36:39.371Z,18.32
2022-10-29T18:39:06.697Z,18.32
2022-10-29T18:41:34.690Z,18.31
2022-10-29T18:44:01.735Z,18.31
2022-10-29T18:46:28.617Z,18.30
2022-10-29T18:48:55.511Z,18.31
2022-10-29T18:51:25.746Z,18.30
2022-10-29T18:53:53.749Z,18.28
2022-10-29T18:56:22.659Z,18.28
2022-10-29T18:58:49.865Z,18.29
2022-10-29T19:01:25.118Z,18.29
2022-10-29T19:03:57.147Z,18.27
2022-10-29T19:06:26.216Z,18.27
2022-10-29T19:08:53.160Z,18.27
2022-10-29T19:11:23.028Z,18.26
2022-10-29T19:13:54.781Z,18.25
2022-10-29T19:16:22.341Z,18.25
2022-10-29T19:18:54.544Z,18.24
2022-10-29T19:21:21.848Z,18.24
2022-10-29T19:23:53.241Z,18.23
2022-10-29T19:26:20.110Z,18.24
2022-10-29T19:28:47.944Z,18.23
2022-10-29T19:31:17.652Z,18.23
2022-10-29T19:33:49.753Z,18.22
2022-10-29T19:36:17.115Z,18.23
2022-10-29T19:38:44.040Z,18.22
2022-10-29T19:41:12.584Z,18.22
2022-10-29T19:43:40.586Z,18.22
2022-10-29T19:46:08.962Z,18.22
2022-10-29T19:48:36.559Z,18.20
2022-10-29T19:51:03.808Z,18.20
2022-10-29T19:53:31.333Z,18.19
2022-10-29T19:55:58.861Z,18.19
2022-10-29T19:58:27.791Z,18.19
2022-10-29T20:00:55.689Z,18.17
2022-10-29T20:03:22.644Z,18.19
2022-10-29T20:05:49.789Z,18.17
2022-10-29T20:08:16.757Z,18.19
2022-10-29T20:10:44.068Z,18.18
2022-10-29T20:13:11.124Z,18.17
2022-10-29T20:15:40.865Z,18.17
2022-10-29T20:18:07.729Z,18.18
2022-10-29T20:20:34.967Z,18.16
2022-10-29T20:23:01.962Z,18.15
2022-10-29T20:25:29.080Z,18.16
2022-10-29T20:27:56.054Z,18.15
2022-10-29T20:30:22.922Z,18.15
2022-10-29T20:32:50.531Z,18.15
2022-10-29T20:35:17.839Z,18.15
2022-10-29T20:37:44.707Z,18.15
2022-10-29T20:40:12.658Z,18.13
2022-10-29T20:42:39.712Z,18.14
2022-10-29T20:45:07.284Z,18.14
2022-10-29T20:47:34.203Z,18.13
2022-10-29T20:50:01.039Z,18.13
2022-10-29T20:52:28.054Z,18.13
2022-10-29T20:54:54.928Z,18.11
2022-10-29T20:57:21.765Z,18.13
2022-10-29T20:59:48.646Z,18.13
2022-10-29T21:02:15.687Z,18.12
2022-10-29T21:04:42.670Z,18.12
2022-10-29T21:07:09.601Z,18.11
2022-10-29T21:09:36.444Z,18.11
2022-10-29T21:12:03.413Z,18.11
2022-10-29T21:14:30.265Z,18.10
2022-10-29T21:16:57.138Z,18.11
2022-10-29T21:19:24.947Z,18.10
2022-10-29T21:21:51.896Z,18.09
2022-10-29T21:24:20.458Z,18.08
2022-10-29T21:26:47.310Z,18.08
2022-10-29T21:29:14.191Z,18.09
2022-10-29T21:31:41.070Z,18.09
2022-10-29T21:34:07.963Z,18.09
2022-10-29T21:36:34.801Z,18.09
2022-10-29T21:39:01.706Z,18.08
2022-10-29T21:41:28.650Z,18.07
2022-10-29T21:43:55.522Z,18.07
2022-10-29T21:46:22.422Z,18.07
2022-10-29T21:48:49.277Z,18.06
2022-10-29T21:51:17.509Z,18.06
2022-10-29T21:53:44.586Z,18.06
2022-10-29T21:56:13.598Z,18.06
2022-10-29T21:58:40.661Z,18.06
2022-10-29T22:01:10.717Z,18.04
2022-10-29T22:03:41.578Z,18.06
2022-10-29T22:06:15.852Z,18.05
2022-10-29T22:08:43.239Z,18.04
2022-10-29T22:13:55.546Z,18.04
2022-10-29T22:16:23.025Z,18.04
2022-10-29T22:21:34.292Z,18.03
2022-10-29T22:26:45.013Z,18.04
2022-10-29T22:31:55.671Z,18.02
2022-10-29T22:34:22.492Z,18.04
2022-10-29T22:36:52.447Z,18.02
2022-10-29T22:39:19.370Z,18.02
2022-10-29T22:41:46.229Z,18.01
2022-10-29T22:44:13.086Z,18.02
2022-10-29T22:46:39.969Z,18.01
2022-10-29T22:49:07.487Z,18.00
2022-10-29T22:51:35.611Z,18.02
2022-10-29T22:54:02.836Z,18.00
2022-10-29T22:56:35.667Z,18.01
2022-10-29T22:59:03.739Z,18.00
2022-10-29T23:01:36.267Z,18.00
2022-10-29T23:04:05.865Z,18.00
2022-10-29T23:06:32.965Z,18.00
2022-10-29T23:08:59.864Z,18.00
2022-10-29T23:11:29.789Z,18.00
2022-10-29T23:13:59.094Z,17.98
2022-10-29T23:16:28.725Z,17.99
2022-10-29T23:18:58.105Z,17.99
2022-10-29T23:21:24.953Z,17.98
2022-10-29T23:23:51.909Z,17.98
2022-10-29T23:26:20.600Z,17.99
2022-10-29T23:28:49.188Z,17.97
2022-10-29T23:31:19.018Z,17.98
2022-10-29T23:33:48.682Z,17.98
2022-10-29T23:36:17.180Z,17.98
2022-10-29T23:38:44.991Z,17.97
2022-10-29T23:41:12.576Z,17.98
2022-10-29T23:43:39.554Z,17.97
2022-10-29T23:46:06.902Z,17.96
2022-10-29T23:48:33.767Z,17.96
2022-10-29T23:51:00.655Z,17.96
2022-10-29T23:53:28.024Z,17.96
2022-10-29T23:55:54.926Z,17.96
2022-10-29T23:58:21.779Z,17.96
